首页
METAR-TAF:

METAR-TAF

机场 :

奥黑尔国际机场

芝加哥, 伊利诺伊州, 美国

纬度: 41-58-47N, 经度: 087-54-16W, 海拔: 203米

当前天气观测

该预报发布于25分钟前的01:28 UTC
风速5节,风向
温度 0°C
湿度 93%
气压 1014 hPa
能見度: 4.0公里
阴天层高于600英尺
小雪, 轻雾

METAR: KORD 230128Z 17005KT 2 1/2SM -SN BR OVC006 00/M01 A2994 RMK AO2 FZDZE0054 P0002 I1000 T00001006

时间: 19:53 (01:53 UTC)

预报

该预报发布于2小时和18分钟前的23:35 UTC
预报有效从23日的 00点(UTC)到 24日的 06点(UTC)
风速8节,风向
能見度: 3.2公里
阴天层高于800英尺
小雪
短暂存在
从 23日的 00点(UTC)到 23日的 03点(UTC)
能見度: 1.6公里
小雪
从 23日的 0400点(UTC)
风速5节,风向南转南东
能見度: 3.2公里
阴天层高于500英尺
小雨, 轻雾
从 23日的 0900点(UTC)
风速4节,风向多变
能見度: 2.4公里
阴天层高于500英尺
小雨, 轻雾
从 23日的 1500点(UTC)
风速13节,风向西转西北
能見度: 1.6公里
阴天层高于800英尺
小雪
从 23日的 1800点(UTC)
风速13节,风向西转西北,有时为20节阵风
能見度: 10公里
多云层高于1200英尺
阴天层高于1800英尺
附近有阵雨

TAF: KORD 222335Z 2300/2406 17008KT 2SM -SN OVC008 TEMPO 2300/2303 1SM -SN FM230400 16005KT 2SM -RA BR OVC005 FM230900 VRB04KT 1 1/2SM -RA BR OVC005 FM231500 30013KT 2SM -SN OVC008 FM231800 30013G20KT P6SM VCSH BKN012 OVC018

超过4000个机场的气象观测和天气预报(METAR&TAF报告)。

可查询的气象台以黄色和红色小点在地图上表示。

将鼠标移到小点上方,可查看气象台名称。

然后点击查看天气观测和预报。

如需切换地图:点击带黑十字的绿色按钮放大地图;点击带横线的绿色按钮缩小地图;或者点击绿色箭头查看邻近地区的地图。


METAR-TAF: